Time;durP1;ratioP1;P1;durP2;ratioP2;P2;SDS_P1;SDS_P2;PMS_P1;PMS_P2;Temp;Humidity;BMP_temperature;BMP_pressure;BME280_temperature;BME280_humidity;BME280_pressure;Samples;Min_cycle;Max_cycle;Signal;HPM_P1;HPM_P2
2023/05/05 00:00:58;;;;;;;24.43;14.10;;;;;;;-141.97;89.08;47757.41;5052432;28;20157;-80
2023/05/05 00:03:24;;;;;;;23.27;13.00;;;;;;;-141.97;89.42;47818.94;5055694;28;20176;-80
2023/05/05 00:05:51;;;;;;;24.53;13.67;;;;;;;-141.97;90.28;47738.19;5054728;28;20168;-80
2023/05/05 00:08:16;;;;;;;26.00;14.03;;;;;;;-141.97;90.47;47834.31;5054373;28;20241;-79
2023/05/05 00:10:46;;;;;;;26.00;13.77;;;;;;;-141.97;90.02;47755.50;5052672;28;20216;-80
2023/05/05 00:13:13;;;;;;;23.67;13.30;;;;;;;-141.97;89.80;47745.88;5052074;28;20166;-80
2023/05/05 00:15:40;;;;;;;27.47;14.53;;;;;;;-141.97;90.15;47665.16;5052156;28;20169;-80
2023/05/05 00:18:06;;;;;;;24.73;13.67;;;;;;;-141.97;90.40;47761.25;5052280;28;20188;-79
2023/05/05 00:20:31;;;;;;;25.80;13.33;;;;;;;-141.97;90.50;47768.94;5062147;28;20165;-78
2023/05/05 00:22:57;;;;;;;27.23;14.77;;;;;;;-141.97;90.77;47707.44;5068556;28;20170;-80
2023/05/05 00:25:22;;;;;;;27.27;14.80;;;;;;;-141.97;90.90;47745.88;5051488;28;20614;-77
2023/05/05 00:27:48;;;;;;;25.67;13.83;;;;;;;-141.97;90.59;47743.97;5051602;28;20162;-81
2023/05/05 00:30:13;;;;;;;27.90;13.70;;;;;;;-141.97;90.25;47768.94;5051383;28;20166;-79
2023/05/05 00:32:38;;;;;;;28.13;14.87;;;;;;;-141.97;90.28;47768.94;5051249;28;20249;-79
2023/05/05 00:35:05;;;;;;;30.20;15.73;;;;;;;-141.97;89.95;47632.47;5051129;28;20542;-79
2023/05/05 00:37:30;;;;;;;26.73;15.00;;;;;;;-141.97;89.78;47745.88;5051491;28;20177;-80
2023/05/05 00:39:56;;;;;;;28.67;15.70;;;;;;;-141.97;89.21;47891.97;5051286;28;20221;-80
2023/05/05 00:42:21;;;;;;;28.07;15.23;;;;;;;-141.97;89.10;47761.25;5055147;28;20164;-80
2023/05/05 00:44:47;;;;;;;29.50;15.43;;;;;;;-141.97;88.54;47768.94;5055181;28;20180;-80
2023/05/05 00:47:13;;;;;;;27.37;15.77;;;;;;;-141.97;88.58;47709.38;5054972;28;20171;-79
2023/05/05 00:49:39;;;;;;;27.53;15.37;;;;;;;-141.97;88.19;47749.72;5055461;28;20168;-80
2023/05/05 00:52:06;;;;;;;31.67;16.10;;;;;;;-141.97;87.85;47745.88;5036698;28;20194;-79
2023/05/05 00:54:33;;;;;;;29.93;15.70;;;;;;;-141.97;88.08;47784.34;5055187;28;20165;-79
2023/05/05 00:57:00;;;;;;;29.00;15.57;;;;;;;-141.97;87.88;47740.13;5055155;28;20189;-79
2023/05/05 00:59:28;;;;;;;27.90;15.23;;;;;;;-141.97;87.64;47755.50;5054854;28;20219;-80
2023/05/05 01:01:54;;;;;;;27.33;15.10;;;;;;;-141.97;87.50;47757.41;5054852;28;20691;-80
2023/05/05 01:04:19;;;;;;;26.57;15.00;;;;;;;-141.97;87.90;47724.75;5054638;28;20162;-80
2023/05/05 01:07:05;;;;;;;30.50;16.00;;;;;;;-141.97;88.80;47720.91;5054603;28;20170;-80
2023/05/05 01:09:42;;;;;;;27.93;15.17;;;;;;;-141.97;89.10;47740.13;5012969;28;20187;-80
2023/05/05 01:12:33;;;;;;;30.47;15.70;;;;;;;-141.97;88.87;47720.91;5012803;28;20713;-80
2023/05/05 01:15:16;;;;;;;29.03;15.13;;;;;;;-141.97;88.95;47742.03;5012627;28;20194;-78
2023/05/05 01:17:51;;;;;;;30.20;15.50;;;;;;;-141.97;88.63;47707.44;5012852;28;20270;-80
2023/05/05 01:20:31;;;;;;;30.47;15.77;;;;;;;-141.97;87.85;47749.72;5013077;28;20194;-80
2023/05/05 01:23:05;;;;;;;27.00;15.67;;;;;;;-141.97;87.88;47720.91;5012979;28;20210;-80
2023/05/05 01:26:15;;;;;;;29.97;15.47;;;;;;;-141.97;87.56;47742.03;5012615;28;20182;-80
2023/05/05 01:28:58;;;;;;;30.50;15.97;;;;;;;-141.97;87.69;47768.94;4915874;29;20201;-80
2023/05/05 01:31:51;;;;;;;29.73;15.83;;;;;;;-141.97;87.68;47765.09;4916005;29;20236;-81
2023/05/05 01:34:24;;;;;;;27.23;15.13;;;;;;;-141.97;87.12;47761.25;4915664;29;20189;-80
2023/05/05 01:36:57;;;;;;;30.03;15.97;;;;;;;-141.97;87.04;47730.50;4915507;29;20269;-81
2023/05/05 01:39:27;;;;;;;26.73;15.33;;;;;;;-141.97;87.10;47726.66;4915656;29;20240;-81
2023/05/05 01:41:58;;;;;;;29.03;15.13;;;;;;;-141.97;87.26;47792.03;4915555;29;20177;-81
2023/05/05 01:44:26;;;;;;;29.33;15.10;;;;;;;-141.97;86.85;47734.34;4915857;29;20170;-81
2023/05/05 01:46:53;;;;;;;27.77;15.33;;;;;;;-141.97;87.18;47845.84;4938972;29;20733;-80
2023/05/05 01:49:19;;;;;;;25.93;15.00;;;;;;;-141.97;87.55;47728.59;4953725;29;20296;-79
2023/05/05 01:51:46;;;;;;;31.80;16.70;;;;;;;-141.97;87.37;47761.25;4952762;28;20216;-79
2023/05/05 01:54:14;;;;;;;29.47;15.63;;;;;;;-141.97;87.42;47863.13;4953385;29;20230;-80
2023/05/05 01:56:41;;;;;;;30.03;15.83;;;;;;;-141.97;88.31;47767.03;4953766;29;20180;-81
2023/05/05 01:59:08;;;;;;;27.40;14.43;;;;;;;-141.97;87.85;47732.44;4953751;29;20296;-79
2023/05/05 02:01:37;;;;;;;29.10;14.40;;;;;;;-141.97;87.93;47736.28;4953766;29;20672;-80
2023/05/05 02:04:05;;;;;;;28.73;14.17;;;;;;;-141.97;87.60;47759.34;4953448;29;20221;-79
2023/05/05 02:06:33;;;;;;;23.77;13.47;;;;;;;-141.97;87.27;47776.63;5047072;28;20661;-80
2023/05/05 02:09:00;;;;;;;26.47;13.63;;;;;;;-141.97;87.23;47761.25;5053142;28;20707;-80
2023/05/05 02:11:26;;;;;;;25.53;13.87;;;;;;;-141.97;87.28;47753.56;5036071;28;20557;-80
2023/05/05 02:13:53;;;;;;;22.60;12.47;;;;;;;-141.97;87.04;47699.75;5047522;28;20181;-80
2023/05/05 02:16:20;;;;;;;25.57;13.37;;;;;;;-141.97;87.04;47738.19;5041611;28;20170;-80
2023/05/05 02:18:46;;;;;;;23.30;12.67;;;;;;;-141.97;86.66;47767.03;5042986;28;20212;-79
2023/05/05 02:21:16;;;;;;;21.80;12.00;;;;;;;-141.97;86.57;47730.50;5043493;28;20600;-79
2023/05/05 02:23:45;;;;;;;22.93;12.23;;;;;;;-141.97;86.89;47757.41;5046021;28;20193;-79
2023/05/05 02:26:13;;;;;;;20.47;12.00;;;;;;;-141.97;86.55;47780.47;5043074;28;20173;-77
2023/05/05 02:28:46;;;;;;;24.63;12.40;;;;;;;-141.97;86.45;47751.66;5034635;28;20165;-80
2023/05/05 02:31:12;;;;;;;19.30;10.80;;;;;;;-141.97;86.00;47757.41;5044283;28;20304;-80
2023/05/05 02:33:40;;;;;;;19.90;10.87;;;;;;;-141.97;84.61;47745.88;5042611;28;20252;-80
2023/05/05 02:36:28;;;;;;;18.13;10.60;;;;;;;-141.97;84.32;47709.38;5040848;28;20174;-80
2023/05/05 02:39:00;;;;;;;20.37;10.77;;;;;;;-141.97;84.13;47732.44;5043210;28;20221;-79
2023/05/05 02:41:27;;;;;;;18.37;10.23;;;;;;;-141.97;84.21;47757.41;5040806;28;20173;-80
2023/05/05 02:43:55;;;;;;;18.77;10.77;;;;;;;-141.97;84.37;47755.50;5043903;28;20166;-80
2023/05/05 02:46:21;;;;;;;17.57;10.33;;;;;;;-141.97;83.88;47742.03;5041374;28;20166;-81
2023/05/05 02:48:46;;;;;;;17.63;10.17;;;;;;;-141.97;82.88;47749.72;5042510;28;20469;-80
2023/05/05 02:51:11;;;;;;;18.20;9.90;;;;;;;-141.97;83.28;47767.03;5042866;28;20576;-80
2023/05/05 02:53:37;;;;;;;15.20;9.33;;;;;;;-141.97;83.02;47784.34;5025728;28;20613;-79
2023/05/05 02:56:11;;;;;;;16.93;9.27;;;;;;;-141.97;82.58;47730.50;5041206;28;20213;-79
2023/05/05 02:58:55;;;;;;;16.10;9.37;;;;;;;-141.97;82.00;47722.81;5043726;28;20176;-79
2023/05/05 03:01:38;;;;;;;13.17;8.20;;;;;;;-141.97;82.22;47824.69;5041382;28;20170;-79
2023/05/05 03:04:07;;;;;;;16.67;8.57;;;;;;;-141.97;81.87;47751.66;5041445;28;20174;-79
2023/05/05 03:06:42;;;;;;;16.53;9.63;;;;;;;-141.97;82.67;47792.03;5043935;28;20299;-80
2023/05/05 03:09:12;;;;;;;21.73;10.73;;;;;;;-141.97;83.65;47753.56;5042219;28;20181;-80
2023/05/05 03:11:43;;;;;;;18.70;10.93;;;;;;;-141.97;84.16;47747.81;5043123;28;20185;-81
2023/05/05 03:14:12;;;;;;;22.43;11.53;;;;;;;-141.97;84.24;47755.50;5042192;28;20248;-79
2023/05/05 03:16:39;;;;;;;20.37;11.33;;;;;;;-141.97;84.72;47822.78;5040971;28;20174;-80
2023/05/05 03:19:07;;;;;;;20.70;11.03;;;;;;;-141.97;85.36;47726.66;5042620;28;20165;-79
2023/05/05 03:21:33;;;;;;;22.93;12.10;;;;;;;-141.97;85.97;47838.16;5040454;28;20174;-79
2023/05/05 03:23:58;;;;;;;20.77;11.60;;;;;;;-141.97;85.36;47782.41;5042639;28;20158;-78
2023/05/05 03:26:24;;;;;;;21.83;11.97;;;;;;;-141.97;86.39;47757.41;5034259;28;20166;-79
2023/05/05 03:28:50;;;;;;;22.73;11.97;;;;;;;-141.97;86.60;47738.19;5032767;28;20653;-80
2023/05/05 03:31:17;;;;;;;23.30;12.07;;;;;;;-141.97;86.57;47776.63;5031322;28;20197;-80
2023/05/05 03:33:42;;;;;;;24.07;12.13;;;;;;;-141.97;86.00;47734.34;5032387;28;20244;-80
2023/05/05 03:36:08;;;;;;;17.33;9.57;;;;;;;-141.97;84.05;47782.41;5037334;28;20173;-79
2023/05/05 03:38:33;;;;;;;17.10;9.40;;;;;;;-141.97;83.63;47765.09;5040627;28;20652;-78
2023/05/05 03:41:02;;;;;;;15.77;8.57;;;;;;;-141.97;82.76;47738.19;5040859;28;20212;-79
2023/05/05 03:43:28;;;;;;;17.03;8.73;;;;;;;-141.97;83.02;47734.34;5038538;28;20238;-80
2023/05/05 03:45:54;;;;;;;16.07;7.97;;;;;;;-141.97;82.28;47742.03;5024711;28;20269;-81
2023/05/05 03:48:20;;;;;;;13.77;7.40;;;;;;;-141.97;81.89;47730.50;5040194;28;20165;-81
2023/05/05 03:50:45;;;;;;;13.10;7.63;;;;;;;-141.97;81.33;47780.47;5040184;28;20594;-81
2023/05/05 03:53:11;;;;;;;13.97;7.67;;;;;;;-141.97;80.58;47753.56;5041943;28;20442;-80
2023/05/05 03:55:36;;;;;;;13.30;7.80;;;;;;;-141.97;78.53;47743.97;5022271;28;20185;-80
2023/05/05 03:58:02;;;;;;;13.63;7.03;;;;;;;-141.97;78.88;47763.19;5043123;28;20648;-80
2023/05/05 04:00:27;;;;;;;11.23;6.73;;;;;;;-141.97;79.17;47738.19;5052390;28;20622;-80
2023/05/05 04:02:53;;;;;;;12.73;7.33;;;;;;;-141.97;79.04;47726.66;5051993;28;20162;-80
2023/05/05 04:05:18;;;;;;;12.10;7.30;;;;;;;-141.97;78.95;47730.50;5051604;28;20154;-78
2023/05/05 04:07:44;;;;;;;14.73;7.33;;;;;;;-141.97;79.63;47738.19;5051201;28;20169;-81
2023/05/05 04:10:10;;;;;;;12.97;7.60;;;;;;;-141.97;79.66;47751.66;5052060;28;20615;-82
2023/05/05 04:12:36;;;;;;;15.70;8.10;;;;;;;-141.97;79.60;47755.50;5052414;28;20189;-80
2023/05/05 04:15:01;;;;;;;14.17;7.70;;;;;;;-141.97;80.15;47730.50;5051216;28;20580;-80
2023/05/05 04:17:26;;;;;;;15.47;8.43;;;;;;;-141.97;80.48;47738.19;5055744;28;20181;-79
2023/05/05 04:19:52;;;;;;;13.77;7.67;;;;;;;-141.97;80.21;47732.44;5055739;28;20192;-80
2023/05/05 04:22:17;;;;;;;13.17;7.40;;;;;;;-141.97;80.35;47751.66;5055772;28;20161;-80
2023/05/05 04:24:42;;;;;;;12.53;7.67;;;;;;;-141.97;80.13;47761.25;5055800;28;20241;-80
2023/05/05 04:27:08;;;;;;;13.70;7.80;;;;;;;-141.97;79.75;47765.09;5055059;28;20546;-80
2023/05/05 04:29:33;;;;;;;12.13;7.70;;;;;;;-141.97;79.98;47718.97;5055284;28;20197;-78
2023/05/05 04:31:59;;;;;;;13.20;7.37;;;;;;;-141.97;80.26;47742.03;5041738;28;20216;-76
2023/05/05 04:34:25;;;;;;;12.57;8.00;;;;;;;-141.97;79.67;47749.72;5044494;28;20229;-79
2023/05/05 04:36:50;;;;;;;16.50;8.07;;;;;;;-141.97;80.20;47736.28;5038332;28;20622;-79
2023/05/05 04:39:16;;;;;;;13.90;8.07;;;;;;;-141.97;79.84;47738.19;5054550;28;20302;-80
2023/05/05 04:41:41;;;;;;;15.73;8.80;;;;;;;-141.97;80.44;47722.81;5054816;28;20802;-81
2023/05/05 04:44:07;;;;;;;15.27;9.10;;;;;;;-141.97;80.26;47767.03;5039550;28;20173;-82
2023/05/05 04:46:33;;;;;;;16.40;8.40;;;;;;;-141.97;80.19;47711.28;5016917;28;20201;-80
2023/05/05 04:48:59;;;;;;;15.03;8.17;;;;;;;-141.97;80.04;47749.72;5041016;28;20196;-83
2023/05/05 04:51:26;;;;;;;18.47;10.80;;;;;;;-141.97;80.02;47765.09;5040965;28;20205;-81
2023/05/05 04:53:52;;;;;;;18.77;11.80;;;;;;;-141.97;79.36;47753.56;5041151;28;20232;-79
2023/05/05 04:56:17;;;;;;;16.67;9.77;;;;;;;-141.97;78.68;47888.13;5045305;28;20169;-80
2023/05/05 04:58:42;;;;;;;18.23;11.13;;;;;;;-141.97;78.62;47897.75;5048934;28;20169;-79
2023/05/05 05:01:08;;;;;;;14.37;8.27;;;;;;;-141.97;78.16;47772.78;5032586;28;20536;-80
2023/05/05 05:03:33;;;;;;;14.77;8.80;;;;;;;-141.97;78.52;47738.19;5045046;28;20200;-80
2023/05/05 05:05:59;;;;;;;14.70;8.13;;;;;;;-141.97;78.16;47736.28;5042777;28;20166;-82
2023/05/05 05:08:24;;;;;;;14.77;8.60;;;;;;;-141.97;77.88;47707.44;5041960;28;20212;-81
2023/05/05 05:10:50;;;;;;;13.10;7.83;;;;;;;-141.97;77.93;47763.19;5044987;28;20202;-81
2023/05/05 05:13:15;;;;;;;14.57;9.07;;;;;;;-141.97;77.82;47738.19;5024918;28;20251;-80
2023/05/05 05:15:41;;;;;;;16.10;9.43;;;;;;;-141.97;77.55;47765.09;5042180;28;20164;-80
2023/05/05 05:18:06;;;;;;;17.03;9.63;;;;;;;-141.97;77.72;47738.19;5044415;28;20670;-80
2023/05/05 05:20:32;;;;;;;16.47;9.57;;;;;;;-141.97;77.90;47795.88;5041963;28;20181;-80
2023/05/05 05:23:00;;;;;;;37.73;18.30;;;;;;;-141.97;77.85;47768.94;5042498;28;20174;-81
2023/05/05 05:25:26;;;;;;;25.40;12.40;;;;;;;-141.97;76.67;47755.50;5028587;28;20237;-80
2023/05/05 05:27:52;;;;;;;17.17;10.13;;;;;;;-141.97;77.57;47749.72;5044910;28;20205;-79
2023/05/05 05:30:18;;;;;;;21.77;11.33;;;;;;;-141.97;77.20;47728.59;5025669;28;20677;-81
2023/05/05 05:32:43;;;;;;;14.47;8.83;;;;;;;-141.97;77.21;47757.41;5032154;28;20217;-80
2023/05/05 05:35:09;;;;;;;16.03;8.93;;;;;;;-141.97;76.97;47747.81;5023933;28;20206;-81
2023/05/05 05:37:34;;;;;;;15.30;9.00;;;;;;;-141.97;77.03;47759.34;5042808;28;20208;-81
2023/05/05 05:40:00;;;;;;;15.40;8.97;;;;;;;-141.97;76.37;47765.09;5032351;28;20209;-80
2023/05/05 05:42:25;;;;;;;14.00;7.47;;;;;;;-141.97;75.54;47770.88;5041254;28;20236;-81
2023/05/05 05:44:51;;;;;;;14.43;7.83;;;;;;;-141.97;76.15;47753.56;5023920;28;20193;-80
2023/05/05 05:47:16;;;;;;;12.50;7.57;;;;;;;-141.97;75.46;47757.41;5027410;28;20189;-80
2023/05/05 05:49:42;;;;;;;14.47;8.27;;;;;;;-141.97;75.04;47749.72;5042472;28;20174;-82
2023/05/05 05:52:07;;;;;;;16.07;8.30;;;;;;;-141.97;74.27;47742.03;5023106;28;20589;-80
2023/05/05 05:54:34;;;;;;;13.00;8.10;;;;;;;-141.97;73.90;47784.34;5033918;28;20227;-77
2023/05/05 05:57:01;;;;;;;14.80;8.30;;;;;;;-141.97;74.24;47788.19;5053512;28;20618;-81
2023/05/05 05:59:27;;;;;;;14.53;7.80;;;;;;;-141.97;74.38;47749.72;5053861;28;20172;-81
2023/05/05 06:01:53;;;;;;;13.10;8.17;;;;;;;-141.97;73.33;47763.19;5053789;28;20177;-81
2023/05/05 06:04:18;;;;;;;14.50;8.30;;;;;;;-141.97;73.10;47718.97;5053442;28;20256;-80
2023/05/05 06:06:44;;;;;;;15.77;8.37;;;;;;;-141.97;72.93;47751.66;5036027;28;20619;-81
2023/05/05 06:09:09;;;;;;;12.73;7.93;;;;;;;-141.97;72.19;47759.34;5056395;28;20234;-81
2023/05/05 06:11:35;;;;;;;14.90;7.30;;;;;;;-141.97;70.52;47730.50;5049989;28;20199;-80
2023/05/05 06:14:01;;;;;;;12.53;7.33;;;;;;;-141.97;71.29;47734.34;5067660;28;20192;-80
2023/05/05 06:16:26;;;;;;;16.00;8.37;;;;;;;-141.97;71.17;47751.66;5067047;28;20161;-81
2023/05/05 06:18:52;;;;;;;13.97;8.33;;;;;;;-141.97;70.27;47743.97;5056795;28;20221;-80
2023/05/05 06:21:19;;;;;;;13.37;7.00;;;;;;;-141.97;70.29;47795.88;5056202;28;20610;-81
2023/05/05 06:23:45;;;;;;;13.20;7.67;;;;;;;-141.97;69.11;47734.34;5042099;28;20204;-79
2023/05/05 06:26:10;;;;;;;13.50;7.10;;;;;;;-141.97;68.97;47661.31;5055395;28;20197;-80
2023/05/05 06:28:36;;;;;;;11.43;7.07;;;;;;;-141.97;68.72;47740.13;5034266;28;20166;-80
2023/05/05 06:31:01;;;;;;;11.37;6.67;;;;;;;-141.97;69.03;47732.44;5023668;28;20241;-80
2023/05/05 06:33:27;;;;;;;13.27;7.70;;;;;;;-141.97;68.69;47757.41;5041370;28;20567;-79
2023/05/05 06:35:53;;;;;;;11.47;7.03;;;;;;;-141.97;68.36;47880.44;5052707;28;20161;-79
2023/05/05 06:38:18;;;;;;;10.80;6.40;;;;;;;-141.97;67.89;47745.88;5050976;28;20229;-79
2023/05/05 06:40:47;;;;;;;12.60;7.70;;;;;;;-141.97;67.46;47736.28;5052513;28;20207;-82
2023/05/05 06:43:12;;;;;;;10.30;6.33;;;;;;;-141.97;66.69;47717.06;5051927;28;20650;-79
2023/05/05 06:45:38;;;;;;;11.73;6.83;;;;;;;-141.97;65.83;47711.28;5051115;28;20200;-78
2023/05/05 06:48:03;;;;;;;12.23;7.03;;;;;;;-141.97;65.93;47767.03;5051898;28;20162;-79
2023/05/05 06:50:29;;;;;;;10.40;6.23;;;;;;;-141.97;65.58;47905.44;5051802;28;20234;-78
2023/05/05 06:52:54;;;;;;;11.97;6.70;;;;;;;-141.97;65.30;47745.88;5050476;28;20197;-79
2023/05/05 06:55:19;;;;;;;9.97;6.63;;;;;;;-141.97;64.60;47755.50;5051247;28;20517;-79
2023/05/05 06:57:45;;;;;;;10.83;6.80;;;;;;;-141.97;65.01;47747.81;5051842;28;20161;-79
2023/05/05 07:00:12;;;;;;;10.80;6.33;;;;;;;-141.97;64.46;47701.69;5052087;28;20177;-79
2023/05/05 07:02:38;;;;;;;10.70;6.70;;;;;;;-141.97;63.33;47765.09;5050940;28;20177;-79
2023/05/05 07:05:05;;;;;;;10.00;5.87;;;;;;;-141.97;62.20;47759.34;5049092;28;20208;-79
2023/05/05 07:07:31;;;;;;;7.77;4.87;;;;;;;-141.97;62.65;47761.25;5051203;28;20158;-79
2023/05/05 07:09:56;;;;;;;17.60;10.53;;;;;;;-141.97;62.58;47734.34;5051655;28;20160;-78
2023/05/05 07:12:22;;;;;;;19.20;12.47;;;;;;;-141.97;61.20;47749.72;5051138;28;20354;-79
2023/05/05 07:14:47;;;;;;;13.33;9.10;;;;;;;-141.97;61.80;47745.88;5050780;28;20189;-78
2023/05/05 07:17:13;;;;;;;16.07;10.47;;;;;;;-141.97;60.92;47703.59;5048857;28;20653;-79
2023/05/05 07:19:38;;;;;;;12.97;6.60;;;;;;;-141.97;60.30;47730.50;5013176;28;20165;-76
2023/05/05 07:22:04;;;;;;;13.40;7.73;;;;;;;-141.97;60.83;47722.81;5031051;28;20186;-80
2023/05/05 07:24:29;;;;;;;11.60;8.13;;;;;;;-141.97;60.38;47717.06;5047514;28;20179;-79
2023/05/05 07:26:54;;;;;;;20.63;13.30;;;;;;;-141.97;60.96;47718.97;5036335;28;20170;-79
2023/05/05 07:29:20;;;;;;;15.03;9.40;;;;;;;-141.97;60.40;47720.91;5030498;28;20177;-79
2023/05/05 07:31:45;;;;;;;12.93;8.67;;;;;;;-141.97;59.59;47705.53;5021177;28;20260;-79
2023/05/05 07:34:10;;;;;;;14.20;11.10;;;;;;;-141.97;60.04;47849.69;5030663;28;20665;-81
2023/05/05 07:36:36;;;;;;;10.97;8.73;;;;;;;-141.97;58.42;47703.59;5030615;28;20154;-79
2023/05/05 07:39:01;;;;;;;9.87;6.57;;;;;;;-141.97;58.29;47630.56;5030760;28;20248;-80
2023/05/05 07:41:27;;;;;;;11.67;7.63;;;;;;;-141.97;57.17;47795.88;5013294;28;20170;-79
2023/05/05 07:43:52;;;;;;;11.63;6.60;;;;;;;-141.97;56.94;47820.84;5029779;28;20181;-79
2023/05/05 07:46:18;;;;;;;10.93;6.33;;;;;;;-141.97;56.96;47713.22;5029401;28;20170;-77
2023/05/05 07:48:43;;;;;;;12.70;8.23;;;;;;;-141.97;57.40;47630.56;5013347;28;20189;-79
2023/05/05 07:51:09;;;;;;;8.73;6.23;;;;;;;-141.97;58.70;47649.78;5017116;28;20662;-78
2023/05/05 07:53:35;;;;;;;22.20;13.70;;;;;;;-141.97;57.17;47661.31;5050017;28;20181;-80
2023/05/05 07:56:00;;;;;;;11.00;6.83;;;;;;;-141.97;58.33;47805.47;5051066;28;20599;-79
2023/05/05 07:58:26;;;;;;;16.97;7.63;;;;;;;-141.97;57.95;47703.59;5050731;28;20510;-80
2023/05/05 08:00:51;;;;;;;13.43;7.13;;;;;;;-141.97;57.33;47718.97;5050766;28;20169;-79
2023/05/05 08:03:19;;;;;;;10.73;6.90;;;;;;;-141.97;55.79;47707.44;5050326;28;20161;-79
2023/05/05 08:05:44;;;;;;;10.43;6.70;;;;;;;-141.97;55.50;47807.41;5050537;28;20255;-79
2023/05/05 08:08:10;;;;;;;12.23;7.37;;;;;;;-141.97;56.65;47817.00;5033601;28;20650;-80
2023/05/05 08:10:35;;;;;;;10.43;6.67;;;;;;;-141.97;56.71;47657.47;5051262;28;20164;-77
2023/05/05 08:13:00;;;;;;;10.10;6.90;;;;;;;-141.97;56.17;47699.75;5050808;28;20518;-76
2023/05/05 08:15:26;;;;;;;9.60;6.70;;;;;;;-141.97;56.07;47669.00;5050695;28;20161;-78
2023/05/05 08:17:54;;;;;;;10.77;6.70;;;;;;;-141.97;56.75;47728.59;5051117;28;20161;-78
2023/05/05 08:20:20;;;;;;;12.27;7.10;;;;;;;-141.97;56.74;47755.50;5050070;28;20153;-78
2023/05/05 08:22:45;;;;;;;9.73;6.90;;;;;;;-141.97;56.22;47861.22;5050172;28;20172;-78
2023/05/05 08:25:12;;;;;;;12.70;7.57;;;;;;;-141.97;55.84;47705.53;5050659;28;20241;-78
2023/05/05 08:27:39;;;;;;;8.93;6.43;;;;;;;-141.97;55.36;47722.81;5029682;28;20248;-78
2023/05/05 08:30:05;;;;;;;10.23;6.63;;;;;;;-141.97;54.41;47707.44;5030061;28;20162;-78
2023/05/05 08:32:31;;;;;;;9.60;7.20;;;;;;;-141.97;55.12;47634.41;5021073;28;20233;-78
2023/05/05 08:34:56;;;;;;;9.73;7.10;;;;;;;-141.97;55.21;47638.25;5030372;28;20603;-78
2023/05/05 08:37:22;;;;;;;9.57;6.33;;;;;;;-141.97;54.75;47720.91;5012808;28;20192;-79
2023/05/05 08:39:47;;;;;;;9.50;5.90;;;;;;;-141.97;53.90;47811.25;5030630;28;20355;-78
2023/05/05 08:42:13;;;;;;;8.60;6.10;;;;;;;-141.97;52.43;47717.06;5030576;28;20634;-79
2023/05/05 08:44:38;;;;;;;10.03;6.17;;;;;;;-141.97;52.97;47701.69;5029703;28;20253;-79
2023/05/05 08:47:04;;;;;;;8.57;6.33;;;;;;;-141.97;53.39;47707.44;5030711;28;20662;-79
2023/05/05 08:49:36;;;;;;;12.77;7.43;;;;;;;-141.97;52.00;47678.63;5031942;28;20182;-79
2023/05/05 08:52:06;;;;;;;39.70;25.57;;;;;;;-141.97;50.90;47686.31;5050010;28;20276;-78
2023/05/05 08:54:35;;;;;;;11.53;7.93;;;;;;;-141.97;50.34;47694.00;5036681;28;20202;-79
2023/05/05 08:57:03;;;;;;;10.67;6.30;;;;;;;-141.97;52.00;47699.75;5030356;28;20175;-78
2023/05/05 08:59:31;;;;;;;8.73;6.00;;;;;;;-141.97;51.16;47636.31;5030448;28;20224;-78
2023/05/05 09:01:58;;;;;;;9.27;6.20;;;;;;;-141.97;52.12;47701.69;5036134;28;20193;-78
2023/05/05 09:04:23;;;;;;;11.27;6.10;;;;;;;-141.97;52.24;47861.22;5045951;28;20177;-78
2023/05/05 09:06:48;;;;;;;9.33;6.30;;;;;;;-141.97;51.30;47674.78;5053364;28;20199;-77
2023/05/05 09:09:14;;;;;;;9.23;5.30;;;;;;;-141.97;50.22;47667.06;5053173;28;20165;-79
2023/05/05 09:11:40;;;;;;;9.53;5.83;;;;;;;-141.97;49.89;47686.31;5056426;28;20181;-77
2023/05/05 09:14:06;;;;;;;7.70;5.87;;;;;;;-141.97;50.43;47699.75;5054734;28;20457;-76
2023/05/05 09:16:32;;;;;;;8.30;5.37;;;;;;;-141.97;49.48;47649.78;5053014;28;20188;-79
2023/05/05 09:19:04;;;;;;;10.77;6.03;;;;;;;-141.97;49.56;47620.94;5053209;28;20170;-80
2023/05/05 09:21:30;;;;;;;9.33;6.10;;;;;;;-141.97;49.30;47707.44;5036261;28;20169;-79
2023/05/05 09:24:10;;;;;;;8.70;6.23;;;;;;;-141.97;49.68;47815.09;5053418;28;20197;-80
2023/05/05 09:26:38;;;;;;;8.97;5.77;;;;;;;-141.97;48.84;47672.84;5042358;28;20174;-79
2023/05/05 09:29:04;;;;;;;7.43;5.53;;;;;;;-141.97;47.71;47659.38;5055647;28;20181;-79
2023/05/05 09:31:30;;;;;;;7.20;4.77;;;;;;;-141.97;48.65;47694.00;5029246;28;20226;-81
2023/05/05 09:33:59;;;;;;;7.23;5.70;;;;;;;-141.97;48.88;47663.22;5033252;28;20188;-80
2023/05/05 09:36:49;;;;;;;8.03;5.53;;;;;;;-141.97;47.80;47684.38;5034557;28;20203;-81
2023/05/05 09:39:19;;;;;;;6.77;5.20;;;;;;;-141.97;47.15;47730.50;5015896;28;20586;-81
2023/05/05 09:41:44;;;;;;;7.13;4.80;;;;;;;-141.97;47.65;47699.75;5034087;28;20158;-80
2023/05/05 09:44:14;;;;;;;7.77;5.37;;;;;;;-141.97;47.97;47659.38;5023265;28;20181;-79
2023/05/05 09:46:49;;;;;;;6.30;5.00;;;;;;;-141.97;47.37;47572.91;5037640;28;20208;-80
2023/05/05 09:49:18;;;;;;;8.37;5.43;;;;;;;-141.97;47.34;47669.00;5033875;28;20203;-81
2023/05/05 09:51:45;;;;;;;7.83;5.33;;;;;;;-141.97;47.90;47647.84;5034898;28;20588;-80
2023/05/05 09:54:24;;;;;;;6.37;4.63;;;;;;;-141.97;47.68;47597.88;5021877;28;20327;-80
2023/05/05 09:56:51;;;;;;;6.20;4.40;;;;;;;-141.97;47.28;47838.16;5033741;28;20168;-81
2023/05/05 09:59:17;;;;;;;7.13;5.20;;;;;;;-141.97;46.42;47644.00;5033995;28;20284;-80
2023/05/05 10:01:43;;;;;;;5.73;4.90;;;;;;;-141.97;45.26;47644.00;5033658;28;20170;-79
2023/05/05 10:04:28;;;;;;;7.40;5.13;;;;;;;-141.97;44.65;47682.47;5020328;28;20181;-79
2023/05/05 10:06:55;;;;;;;7.43;5.30;;;;;;;-141.97;44.10;47607.50;5033560;28;20189;-80
2023/05/05 10:09:22;;;;;;;7.80;5.00;;;;;;;-141.97;45.18;47632.47;5033491;28;20193;-80
2023/05/05 10:11:48;;;;;;;8.93;4.90;;;;;;;-141.97;45.49;47640.16;5032852;28;20197;-79
2023/05/05 10:14:14;;;;;;;8.30;5.30;;;;;;;-141.97;44.19;47553.69;5040534;28;20179;-79
2023/05/05 10:16:45;;;;;;;7.13;5.23;;;;;;;-141.97;44.65;47665.16;5052803;28;20214;-82
2023/05/05 10:19:15;;;;;;;7.40;5.23;;;;;;;-141.97;45.24;47665.16;5052665;28;20169;-80
2023/05/05 10:21:44;;;;;;;7.37;5.30;;;;;;;-141.97;44.86;47838.16;5052714;28;20247;-79
2023/05/05 10:24:14;;;;;;;7.37;5.67;;;;;;;-141.97;46.12;47630.56;5052448;28;20177;-84
2023/05/05 10:26:42;;;;;;;6.77;5.63;;;;;;;-141.97;44.48;47786.25;5040354;28;20248;-79
2023/05/05 10:29:16;;;;;;;8.23;5.37;;;;;;;-141.97;43.45;47697.84;5015300;28;20175;-77
2023/05/05 10:31:52;;;;;;;8.53;6.10;;;;;;;-141.97;43.78;47651.69;5023604;28;20245;-78
2023/05/05 10:34:34;;;;;;;9.23;5.73;;;;;;;-141.97;44.10;47632.47;5031681;28;20213;-83
2023/05/05 10:37:00;;;;;;;10.23;6.00;;;;;;;-141.97;43.74;47649.78;5032800;28;20166;-80
2023/05/05 10:39:26;;;;;;;8.47;6.03;;;;;;;-141.97;43.39;47634.41;5033965;28;20222;-81
2023/05/05 10:41:52;;;;;;;7.93;5.50;;;;;;;-141.97;44.42;47597.88;5033445;28;20163;-79
2023/05/05 10:44:18;;;;;;;7.10;5.30;;;;;;;-141.97;44.10;47592.13;5031927;28;20174;-81
2023/05/05 10:46:44;;;;;;;7.47;5.70;;;;;;;-141.97;43.64;47657.47;5031946;28;20598;-81
2023/05/05 10:49:30;;;;;;;8.73;5.97;;;;;;;-141.97;43.61;47609.41;5032664;28;20180;-80
2023/05/05 10:52:06;;;;;;;10.70;6.00;;;;;;;-141.97;43.29;47651.69;5032393;28;20284;-84
2023/05/05 10:54:34;;;;;;;6.43;4.90;;;;;;;-141.97;41.56;47626.72;5031861;28;20253;-80
2023/05/05 10:57:03;;;;;;;6.97;5.03;;;;;;;-141.97;41.78;47657.47;5040016;28;20216;-80
2023/05/05 10:59:37;;;;;;;8.37;5.30;;;;;;;-141.97;41.85;47647.84;5052233;28;20161;-81
2023/05/05 11:02:19;;;;;;;8.83;6.00;;;;;;;-141.97;42.06;47659.38;5052507;28;20161;-81
2023/05/05 11:05:07;;;;;;;9.13;5.00;;;;;;;-141.97;42.36;47651.69;5052076;28;20158;-80
2023/05/05 11:07:35;;;;;;;7.50;5.10;;;;;;;-141.97;42.83;47636.31;5051960;28;20169;-79
2023/05/05 11:10:03;;;;;;;6.35;5.38;;;;;;;-141.97;41.91;47649.78;5034243;28;20710;-80
2023/05/05 11:12:30;;;;;;;8.10;5.40;;;;;;;-141.97;41.13;47642.09;5051856;28;20355;-80